sensor_id;sensor_type;location;lat;lon;timestamp;pressure;altitude;pressure_sealevel;temperature;humidity
63097;BME280;49185;42.320;23.198;2023-05-09T00:01:45;95024.41;;;13.17;76.31
63097;BME280;49185;42.320;23.198;2023-05-09T00:04:10;95004.69;;;13.23;75.25
63097;BME280;49185;42.320;23.198;2023-05-09T00:06:36;95014.47;;;13.07;76.36
63097;BME280;49185;42.320;23.198;2023-05-09T00:09:01;95014.22;;;13.08;75.15
63097;BME280;49185;42.320;23.198;2023-05-09T00:11:27;95011.78;;;13.02;75.13
63097;BME280;49185;42.320;23.198;2023-05-09T00:13:52;95012.59;;;13.07;74.84
63097;BME280;49185;42.320;23.198;2023-05-09T00:16:18;95017.53;;;12.88;75.76
63097;BME280;49185;42.320;23.198;2023-05-09T00:18:43;95011.06;;;13.17;73.97
63097;BME280;49185;42.320;23.198;2023-05-09T00:21:09;95011.22;;;13.05;74.14
63097;BME280;49185;42.320;23.198;2023-05-09T00:23:35;95009.66;;;13.04;74.18
63097;BME280;49185;42.320;23.198;2023-05-09T00:26:00;95012.56;;;13.02;73.69
63097;BME280;49185;42.320;23.198;2023-05-09T00:28:26;95016.66;;;13.15;73.46
63097;BME280;49185;42.320;23.198;2023-05-09T00:30:51;95006.75;;;13.10;73.91
63097;BME280;49185;42.320;23.198;2023-05-09T00:33:18;95007.94;;;12.87;75.29
63097;BME280;49185;42.320;23.198;2023-05-09T00:35:43;95011.59;;;12.81;75.00
63097;BME280;49185;42.320;23.198;2023-05-09T00:38:08;95011.53;;;12.71;75.38
63097;BME280;49185;42.320;23.198;2023-05-09T00:40:34;95010.41;;;12.99;73.79
63097;BME280;49185;42.320;23.198;2023-05-09T00:42:59;95009.94;;;12.70;74.78
63097;BME280;49185;42.320;23.198;2023-05-09T00:45:25;95011.72;;;12.97;74.24
63097;BME280;49185;42.320;23.198;2023-05-09T00:47:50;95018.13;;;12.96;73.81
63097;BME280;49185;42.320;23.198;2023-05-09T00:50:16;95013.84;;;12.62;76.02
63097;BME280;49185;42.320;23.198;2023-05-09T00:52:42;95015.56;;;12.73;75.48
63097;BME280;49185;42.320;23.198;2023-05-09T00:55:08;95004.63;;;12.75;75.75
63097;BME280;49185;42.320;23.198;2023-05-09T00:57:34;95003.06;;;12.79;76.18
63097;BME280;49185;42.320;23.198;2023-05-09T01:00:00;95006.63;;;12.58;76.59
63097;BME280;49185;42.320;23.198;2023-05-09T01:02:25;95004.50;;;12.60;77.23
63097;BME280;49185;42.320;23.198;2023-05-09T01:04:52;94999.38;;;12.53;77.88
63097;BME280;49185;42.320;23.198;2023-05-09T01:07:26;94999.28;;;12.75;77.02
63097;BME280;49185;42.320;23.198;2023-05-09T01:12:54;94995.09;;;12.52;78.87
63097;BME280;49185;42.320;23.198;2023-05-09T01:15:23;95000.78;;;12.33;79.32
63097;BME280;49185;42.320;23.198;2023-05-09T01:18:11;95003.31;;;12.45;79.00
63097;BME280;49185;42.320;23.198;2023-05-09T01:21:09;94996.19;;;12.24;79.85
63097;BME280;49185;42.320;23.198;2023-05-09T01:29:44;95006.28;;;12.22;81.08
63097;BME280;49185;42.320;23.198;2023-05-09T01:32:23;95005.34;;;12.06;81.19
63097;BME280;49185;42.320;23.198;2023-05-09T01:34:51;95015.25;;;11.88;81.50
63097;BME280;49185;42.320;23.198;2023-05-09T01:37:22;95009.34;;;12.35;80.10
63097;BME280;49185;42.320;23.198;2023-05-09T01:39:52;95005.16;;;12.18;80.34
63097;BME280;49185;42.320;23.198;2023-05-09T01:42:19;95007.41;;;12.04;80.73
63097;BME280;49185;42.320;23.198;2023-05-09T01:44:45;95010.03;;;11.99;81.24
63097;BME280;49185;42.320;23.198;2023-05-09T01:47:12;95007.50;;;11.87;81.40
63097;BME280;49185;42.320;23.198;2023-05-09T01:49:40;95011.69;;;11.83;81.95
63097;BME280;49185;42.320;23.198;2023-05-09T01:52:10;95006.50;;;11.71;82.64
63097;BME280;49185;42.320;23.198;2023-05-09T01:54:38;95004.03;;;11.64;82.97
63097;BME280;49185;42.320;23.198;2023-05-09T01:57:05;95015.78;;;11.68;83.17
63097;BME280;49185;42.320;23.198;2023-05-09T01:59:33;95015.25;;;11.44;84.05
63097;BME280;49185;42.320;23.198;2023-05-09T02:01:59;95018.22;;;11.70;83.01
63097;BME280;49185;42.320;23.198;2023-05-09T02:04:25;95014.72;;;11.47;83.49
63097;BME280;49185;42.320;23.198;2023-05-09T02:06:53;95020.31;;;11.46;83.83
63097;BME280;49185;42.320;23.198;2023-05-09T02:09:19;95023.03;;;11.51;83.78
63097;BME280;49185;42.320;23.198;2023-05-09T02:11:45;95026.03;;;11.54;83.81
63097;BME280;49185;42.320;23.198;2023-05-09T02:14:11;95024.88;;;11.50;84.06
63097;BME280;49185;42.320;23.198;2023-05-09T02:16:36;95027.25;;;11.47;84.33
63097;BME280;49185;42.320;23.198;2023-05-09T02:19:02;95020.81;;;11.43;84.31
63097;BME280;49185;42.320;23.198;2023-05-09T02:21:27;95020.34;;;11.51;84.34
63097;BME280;49185;42.320;23.198;2023-05-09T02:23:53;95025.38;;;11.47;84.71
63097;BME280;49185;42.320;23.198;2023-05-09T02:26:18;95026.59;;;11.56;83.82
63097;BME280;49185;42.320;23.198;2023-05-09T02:28:44;95029.09;;;11.46;83.86
63097;BME280;49185;42.320;23.198;2023-05-09T02:31:12;95018.75;;;11.50;84.08
63097;BME280;49185;42.320;23.198;2023-05-09T02:33:38;95016.28;;;11.43;84.25
63097;BME280;49185;42.320;23.198;2023-05-09T02:36:05;95020.19;;;11.35;84.92
63097;BME280;49185;42.320;23.198;2023-05-09T02:38:31;95022.91;;;11.40;84.44
63097;BME280;49185;42.320;23.198;2023-05-09T02:40:57;95020.25;;;11.40;84.50
63097;BME280;49185;42.320;23.198;2023-05-09T02:43:23;95024.81;;;11.23;84.70
63097;BME280;49185;42.320;23.198;2023-05-09T02:45:48;95028.19;;;11.18;85.18
63097;BME280;49185;42.320;23.198;2023-05-09T02:48:13;95034.53;;;11.34;84.78
63097;BME280;49185;42.320;23.198;2023-05-09T02:50:39;95028.75;;;11.20;84.84
63097;BME280;49185;42.320;23.198;2023-05-09T02:53:04;95041.25;;;11.20;85.04
63097;BME280;49185;42.320;23.198;2023-05-09T02:55:30;95038.19;;;11.28;83.98
63097;BME280;49185;42.320;23.198;2023-05-09T02:57:55;95037.91;;;11.47;83.43
63097;BME280;49185;42.320;23.198;2023-05-09T03:00:20;95034.84;;;11.38;83.65
63097;BME280;49185;42.320;23.198;2023-05-09T03:02:46;95035.41;;;11.40;83.44
63097;BME280;49185;42.320;23.198;2023-05-09T03:05:11;95038.69;;;11.08;85.14
63097;BME280;49185;42.320;23.198;2023-05-09T03:07:37;95043.97;;;11.03;85.37
63097;BME280;49185;42.320;23.198;2023-05-09T03:10:02;95038.53;;;11.15;84.92
63097;BME280;49185;42.320;23.198;2023-05-09T03:12:28;95048.53;;;11.08;85.57
63097;BME280;49185;42.320;23.198;2023-05-09T03:14:53;95048.78;;;11.06;85.29
63097;BME280;49185;42.320;23.198;2023-05-09T03:17:19;95050.47;;;11.12;84.74
63097;BME280;49185;42.320;23.198;2023-05-09T03:19:44;95052.59;;;11.10;85.54
63097;BME280;49185;42.320;23.198;2023-05-09T03:22:10;95059.97;;;11.25;84.28
63097;BME280;49185;42.320;23.198;2023-05-09T03:24:35;95063.59;;;11.36;83.70
63097;BME280;49185;42.320;23.198;2023-05-09T03:27:01;95064.28;;;11.26;84.19
63097;BME280;49185;42.320;23.198;2023-05-09T03:29:26;95069.00;;;11.41;82.77
63097;BME280;49185;42.320;23.198;2023-05-09T03:31:51;95062.72;;;11.30;83.98
63097;BME280;49185;42.320;23.198;2023-05-09T03:34:17;95061.19;;;11.34;83.95
63097;BME280;49185;42.320;23.198;2023-05-09T03:36:43;95061.31;;;11.45;83.66
63097;BME280;49185;42.320;23.198;2023-05-09T03:39:09;95060.84;;;11.48;83.46
63097;BME280;49185;42.320;23.198;2023-05-09T03:41:35;95064.28;;;11.65;83.07
63097;BME280;49185;42.320;23.198;2023-05-09T03:44:01;95072.94;;;11.55;83.68
63097;BME280;49185;42.320;23.198;2023-05-09T03:46:27;95072.69;;;11.57;83.84
63097;BME280;49185;42.320;23.198;2023-05-09T03:48:52;95079.44;;;11.65;83.92
63097;BME280;49185;42.320;23.198;2023-05-09T03:51:17;95072.91;;;11.72;84.22
63097;BME280;49185;42.320;23.198;2023-05-09T03:53:45;95072.31;;;11.70;83.98
63097;BME280;49185;42.320;23.198;2023-05-09T03:56:11;95068.53;;;11.66;84.19
63097;BME280;49185;42.320;23.198;2023-05-09T03:58:36;95069.72;;;11.75;83.65
63097;BME280;49185;42.320;23.198;2023-05-09T04:01:02;95066.00;;;11.76;83.47
63097;BME280;49185;42.320;23.198;2023-05-09T04:03:27;95070.34;;;11.83;83.26
63097;BME280;49185;42.320;23.198;2023-05-09T04:05:53;95071.00;;;11.90;83.38
63097;BME280;49185;42.320;23.198;2023-05-09T04:08:18;95075.47;;;12.06;82.62
63097;BME280;49185;42.320;23.198;2023-05-09T04:10:44;95077.19;;;12.18;81.84
63097;BME280;49185;42.320;23.198;2023-05-09T04:13:09;95076.88;;;12.36;81.14
63097;BME280;49185;42.320;23.198;2023-05-09T04:15:35;95073.78;;;12.49;80.92
63097;BME280;49185;42.320;23.198;2023-05-09T04:18:00;95064.31;;;12.64;79.92
63097;BME280;49185;42.320;23.198;2023-05-09T04:20:26;95075.59;;;12.71;79.76
63097;BME280;49185;42.320;23.198;2023-05-09T04:22:51;95079.59;;;12.68;78.92
63097;BME280;49185;42.320;23.198;2023-05-09T04:25:16;95083.59;;;12.44;80.36
63097;BME280;49185;42.320;23.198;2023-05-09T04:27:42;95074.63;;;12.55;79.10
63097;BME280;49185;42.320;23.198;2023-05-09T04:30:08;95069.53;;;12.48;79.28
63097;BME280;49185;42.320;23.198;2023-05-09T04:32:33;95076.19;;;12.78;78.32
63097;BME280;49185;42.320;23.198;2023-05-09T04:34:58;95086.09;;;12.50;79.75
63097;BME280;49185;42.320;23.198;2023-05-09T04:37:24;95077.03;;;13.48;75.39
63097;BME280;49185;42.320;23.198;2023-05-09T04:39:50;95082.75;;;14.36;72.01
63097;BME280;49185;42.320;23.198;2023-05-09T04:42:15;95080.34;;;16.14;65.05
63097;BME280;49185;42.320;23.198;2023-05-09T04:44:41;95074.78;;;16.50;63.13
63097;BME280;49185;42.320;23.198;2023-05-09T04:47:06;95086.91;;;15.62;64.85
63097;BME280;49185;42.320;23.198;2023-05-09T04:49:32;95080.84;;;14.16;69.57
63097;BME280;49185;42.320;23.198;2023-05-09T04:51:57;95091.19;;;13.97;70.88
63097;BME280;49185;42.320;23.198;2023-05-09T04:54:22;95085.91;;;14.12;69.74
63097;BME280;49185;42.320;23.198;2023-05-09T04:56:48;95094.56;;;14.40;68.39
63097;BME280;49185;42.320;23.198;2023-05-09T04:59:13;95090.91;;;15.85;63.60
63097;BME280;49185;42.320;23.198;2023-05-09T05:01:39;95096.97;;;16.11;62.75
63097;BME280;49185;42.320;23.198;2023-05-09T05:04:04;95086.31;;;15.90;61.99
63097;BME280;49185;42.320;23.198;2023-05-09T05:06:29;95095.28;;;13.62;70.50
63097;BME280;49185;42.320;23.198;2023-05-09T05:08:55;95085.53;;;13.08;72.95
63097;BME280;49185;42.320;23.198;2023-05-09T05:11:20;95083.03;;;12.96;73.31
63097;BME280;49185;42.320;23.198;2023-05-09T05:13:46;95093.34;;;12.82;73.91
63097;BME280;49185;42.320;23.198;2023-05-09T05:16:11;95094.94;;;12.83;73.88
63097;BME280;49185;42.320;23.198;2023-05-09T05:18:37;95089.88;;;12.87;74.29
63097;BME280;49185;42.320;23.198;2023-05-09T05:21:02;95083.66;;;12.76;74.95
63097;BME280;49185;42.320;23.198;2023-05-09T05:23:27;95081.63;;;12.88;73.55
63097;BME280;49185;42.320;23.198;2023-05-09T05:25:53;95071.91;;;13.09;73.68
63097;BME280;49185;42.320;23.198;2023-05-09T05:28:18;95072.97;;;13.41;71.71
63097;BME280;49185;42.320;23.198;2023-05-09T05:30:44;95080.44;;;13.39;71.14
63097;BME280;49185;42.320;23.198;2023-05-09T05:33:09;95082.09;;;13.45;71.24
63097;BME280;49185;42.320;23.198;2023-05-09T05:35:35;95081.13;;;14.24;67.46
63097;BME280;49185;42.320;23.198;2023-05-09T05:38:00;95082.56;;;14.53;67.19
63097;BME280;49185;42.320;23.198;2023-05-09T05:40:26;95087.47;;;14.97;65.93
63097;BME280;49185;42.320;23.198;2023-05-09T05:42:51;95100.03;;;14.76;66.01
63097;BME280;49185;42.320;23.198;2023-05-09T05:45:16;95092.84;;;14.97;65.89
63097;BME280;49185;42.320;23.198;2023-05-09T05:47:42;95090.94;;;15.44;63.91
63097;BME280;49185;42.320;23.198;2023-05-09T05:50:07;95087.72;;;17.56;57.94
63097;BME280;49185;42.320;23.198;2023-05-09T05:52:33;95098.53;;;16.27;60.21
63097;BME280;49185;42.320;23.198;2023-05-09T05:54:58;95102.13;;;16.57;59.09
63097;BME280;49185;42.320;23.198;2023-05-09T05:57:24;95100.75;;;17.15;56.83
63097;BME280;49185;42.320;23.198;2023-05-09T05:59:49;95108.94;;;17.63;54.61
63097;BME280;49185;42.320;23.198;2023-05-09T06:02:16;95099.38;;;17.17;55.90
63097;BME280;49185;42.320;23.198;2023-05-09T06:04:42;95095.22;;;17.35;56.54
63097;BME280;49185;42.320;23.198;2023-05-09T06:07:08;95095.00;;;17.85;55.43
63097;BME280;49185;42.320;23.198;2023-05-09T06:09:34;95093.41;;;18.75;52.95
63097;BME280;49185;42.320;23.198;2023-05-09T06:11:59;95098.69;;;19.38;50.11
63097;BME280;49185;42.320;23.198;2023-05-09T06:14:25;95098.38;;;18.44;51.87
63097;BME280;49185;42.320;23.198;2023-05-09T06:16:50;95094.91;;;18.63;51.44
63097;BME280;49185;42.320;23.198;2023-05-09T06:19:16;95106.19;;;18.21;53.29
63097;BME280;49185;42.320;23.198;2023-05-09T06:21:42;95097.22;;;19.45;49.17
63097;BME280;49185;42.320;23.198;2023-05-09T06:24:08;95103.97;;;18.05;52.17
63097;BME280;49185;42.320;23.198;2023-05-09T06:26:34;95101.38;;;15.50;59.90
63097;BME280;49185;42.320;23.198;2023-05-09T06:29:00;95101.94;;;15.06;61.68
63097;BME280;49185;42.320;23.198;2023-05-09T06:31:25;95099.50;;;15.51;61.88
63097;BME280;49185;42.320;23.198;2023-05-09T06:33:51;95095.28;;;17.83;54.79
63097;BME280;49185;42.320;23.198;2023-05-09T06:36:17;95094.19;;;17.84;54.02
63097;BME280;49185;42.320;23.198;2023-05-09T06:38:42;95090.25;;;19.58;49.20
63097;BME280;49185;42.320;23.198;2023-05-09T06:41:07;95096.09;;;19.13;50.84
63097;BME280;49185;42.320;23.198;2023-05-09T06:43:33;95092.19;;;19.71;48.57
63097;BME280;49185;42.320;23.198;2023-05-09T06:45:58;95104.84;;;20.04;47.60
63097;BME280;49185;42.320;23.198;2023-05-09T06:48:24;95094.84;;;19.58;48.88
63097;BME280;49185;42.320;23.198;2023-05-09T06:50:49;95085.00;;;17.91;53.23
63097;BME280;49185;42.320;23.198;2023-05-09T06:53:14;95078.97;;;19.23;50.43
63097;BME280;49185;42.320;23.198;2023-05-09T06:55:41;95087.16;;;18.37;51.64
63097;BME280;49185;42.320;23.198;2023-05-09T06:58:06;95096.94;;;18.95;50.82
63097;BME280;49185;42.320;23.198;2023-05-09T07:00:32;95088.00;;;18.94;50.45
63097;BME280;49185;42.320;23.198;2023-05-09T07:02:57;95091.88;;;18.26;52.06
63097;BME280;49185;42.320;23.198;2023-05-09T07:05:23;95086.31;;;18.60;52.62
63097;BME280;49185;42.320;23.198;2023-05-09T07:07:48;95095.16;;;17.70;54.12
63097;BME280;49185;42.320;23.198;2023-05-09T07:10:14;95084.69;;;17.39;53.56
63097;BME280;49185;42.320;23.198;2023-05-09T07:12:39;95088.34;;;18.07;52.30
63097;BME280;49185;42.320;23.198;2023-05-09T07:15:06;95092.09;;;18.54;50.28
63097;BME280;49185;42.320;23.198;2023-05-09T07:17:31;95088.22;;;17.34;53.87
63097;BME280;49185;42.320;23.198;2023-05-09T07:19:57;95098.41;;;17.37;53.46
63097;BME280;49185;42.320;23.198;2023-05-09T07:22:22;95092.34;;;16.77;55.65
63097;BME280;49185;42.320;23.198;2023-05-09T07:24:48;95092.84;;;16.34;57.58
63097;BME280;49185;42.320;23.198;2023-05-09T07:27:13;95082.78;;;18.41;52.28
63097;BME280;49185;42.320;23.198;2023-05-09T07:29:39;95092.72;;;19.73;48.57
63097;BME280;49185;42.320;23.198;2023-05-09T07:32:04;95094.84;;;19.90;47.82
63097;BME280;49185;42.320;23.198;2023-05-09T07:34:30;95096.22;;;18.89;50.69
63097;BME280;49185;42.320;23.198;2023-05-09T07:36:55;95087.00;;;19.75;48.90
63097;BME280;49185;42.320;23.198;2023-05-09T07:39:20;95090.91;;;19.17;49.06
63097;BME280;49185;42.320;23.198;2023-05-09T07:41:46;95095.47;;;18.16;51.56
63097;BME280;49185;42.320;23.198;2023-05-09T07:44:11;95082.47;;;18.24;51.90
63097;BME280;49185;42.320;23.198;2023-05-09T07:46:37;95077.84;;;18.05;51.90
63097;BME280;49185;42.320;23.198;2023-05-09T07:49:02;95072.91;;;18.12;53.51
63097;BME280;49185;42.320;23.198;2023-05-09T07:51:28;95068.22;;;18.23;52.97
63097;BME280;49185;42.320;23.198;2023-05-09T07:53:53;95071.69;;;19.05;50.20
63097;BME280;49185;42.320;23.198;2023-05-09T07:56:19;95073.03;;;19.54;47.80
63097;BME280;49185;42.320;23.198;2023-05-09T07:58:44;95079.94;;;18.94;50.10
63097;BME280;49185;42.320;23.198;2023-05-09T08:01:09;95094.97;;;17.61;52.62
63097;BME280;49185;42.320;23.198;2023-05-09T08:03:35;95097.13;;;16.40;56.22
63097;BME280;49185;42.320;23.198;2023-05-09T08:06:00;95096.53;;;16.54;55.85
63097;BME280;49185;42.320;23.198;2023-05-09T08:08:27;95103.34;;;16.30;56.87
63097;BME280;49185;42.320;23.198;2023-05-09T08:10:52;95097.97;;;16.85;55.63
63097;BME280;49185;42.320;23.198;2023-05-09T08:13:18;95106.09;;;16.15;57.94
63097;BME280;49185;42.320;23.198;2023-05-09T08:15:43;95100.81;;;16.60;56.91
63097;BME280;49185;42.320;23.198;2023-05-09T08:18:09;95099.44;;;16.62;56.59
63097;BME280;49185;42.320;23.198;2023-05-09T08:20:34;95104.56;;;16.59;57.52
63097;BME280;49185;42.320;23.198;2023-05-09T08:22:59;95103.53;;;16.49;56.82
63097;BME280;49185;42.320;23.198;2023-05-09T08:25:25;95100.44;;;17.21;56.37
63097;BME280;49185;42.320;23.198;2023-05-09T08:27:50;95102.50;;;17.30;55.38
63097;BME280;49185;42.320;23.198;2023-05-09T08:30:16;95102.75;;;16.49;57.47
63097;BME280;49185;42.320;23.198;2023-05-09T08:32:41;95095.84;;;17.80;52.95
63097;BME280;49185;42.320;23.198;2023-05-09T08:35:07;95094.88;;;17.42;54.09
63097;BME280;49185;42.320;23.198;2023-05-09T08:37:33;95100.38;;;17.26;55.38
63097;BME280;49185;42.320;23.198;2023-05-09T08:39:58;95098.81;;;16.76;56.59
63097;BME280;49185;42.320;23.198;2023-05-09T08:42:24;95102.31;;;16.76;56.23
63097;BME280;49185;42.320;23.198;2023-05-09T08:44:51;95103.22;;;16.61;56.57
63097;BME280;49185;42.320;23.198;2023-05-09T08:47:17;95103.97;;;16.67;57.14
63097;BME280;49185;42.320;23.198;2023-05-09T08:49:43;95104.63;;;16.48;57.58
63097;BME280;49185;42.320;23.198;2023-05-09T08:52:08;95101.38;;;16.46;57.88
63097;BME280;49185;42.320;23.198;2023-05-09T08:54:35;95104.50;;;17.14;55.89
63097;BME280;49185;42.320;23.198;2023-05-09T08:57:00;95112.97;;;16.42;56.80
63097;BME280;49185;42.320;23.198;2023-05-09T08:59:26;95118.41;;;16.81;56.34
63097;BME280;49185;42.320;23.198;2023-05-09T09:01:53;95109.81;;;16.29;57.76
63097;BME280;49185;42.320;23.198;2023-05-09T09:04:18;95108.41;;;16.42;57.18
63097;BME280;49185;42.320;23.198;2023-05-09T09:06:44;95114.09;;;16.30;58.01
63097;BME280;49185;42.320;23.198;2023-05-09T09:09:10;95112.00;;;16.17;58.35
63097;BME280;49185;42.320;23.198;2023-05-09T09:11:39;95107.63;;;16.92;56.22
63097;BME280;49185;42.320;23.198;2023-05-09T09:14:12;95102.59;;;17.19;56.57
63097;BME280;49185;42.320;23.198;2023-05-09T09:16:43;95110.78;;;16.54;56.23
63097;BME280;49185;42.320;23.198;2023-05-09T09:19:12;95111.84;;;16.53;56.14
63097;BME280;49185;42.320;23.198;2023-05-09T09:21:40;95098.34;;;16.68;56.02
63097;BME280;49185;42.320;23.198;2023-05-09T09:24:13;95078.50;;;17.68;53.42
63097;BME280;49185;42.320;23.198;2023-05-09T09:26:46;95098.31;;;17.13;55.10
63097;BME280;49185;42.320;23.198;2023-05-09T09:29:12;95112.56;;;16.69;56.60
63097;BME280;49185;42.320;23.198;2023-05-09T09:31:37;95093.50;;;17.44;53.67
63097;BME280;49185;42.320;23.198;2023-05-09T09:34:03;95098.84;;;17.15;55.55
63097;BME280;49185;42.320;23.198;2023-05-09T09:36:29;95090.88;;;17.63;55.06
63097;BME280;49185;42.320;23.198;2023-05-09T09:38:58;95089.00;;;17.05;55.57
63097;BME280;49185;42.320;23.198;2023-05-09T09:41:37;95086.72;;;17.23;54.59
63097;BME280;49185;42.320;23.198;2023-05-09T09:44:17;95079.56;;;17.67;54.35
63097;BME280;49185;42.320;23.198;2023-05-09T09:46:51;95075.34;;;17.60;52.97
63097;BME280;49185;42.320;23.198;2023-05-09T09:49:18;95084.84;;;17.77;53.79
63097;BME280;49185;42.320;23.198;2023-05-09T09:54:16;95083.88;;;17.38;53.46
63097;BME280;49185;42.320;23.198;2023-05-09T09:56:44;95073.09;;;17.09;55.24
63097;BME280;49185;42.320;23.198;2023-05-09T09:59:14;95070.59;;;16.78;55.09
63097;BME280;49185;42.320;23.198;2023-05-09T10:02:02;95091.13;;;16.59;56.32
63097;BME280;49185;42.320;23.198;2023-05-09T10:04:36;95062.88;;;17.40;53.09
63097;BME280;49185;42.320;23.198;2023-05-09T10:07:03;95073.44;;;17.90;52.37
63097;BME280;49185;42.320;23.198;2023-05-09T10:09:28;95062.16;;;17.59;51.88
63097;BME280;49185;42.320;23.198;2023-05-09T10:11:55;95074.88;;;17.53;52.38
63097;BME280;49185;42.320;23.198;2023-05-09T10:14:23;95075.19;;;17.46;53.69
63097;BME280;49185;42.320;23.198;2023-05-09T10:16:51;95075.34;;;17.84;51.80
63097;BME280;49185;42.320;23.198;2023-05-09T10:19:19;95065.03;;;18.59;50.00
63097;BME280;49185;42.320;23.198;2023-05-09T10:21:54;95061.25;;;18.41;50.21
63097;BME280;49185;42.320;23.198;2023-05-09T10:27:25;95072.34;;;17.33;53.38
63097;BME280;49185;42.320;23.198;2023-05-09T10:35:10;95056.22;;;18.53;50.46
63097;BME280;49185;42.320;23.198;2023-05-09T10:37:36;95060.31;;;17.83;51.92
63097;BME280;49185;42.320;23.198;2023-05-09T10:40:03;95062.16;;;17.59;53.06
63097;BME280;49185;42.320;23.198;2023-05-09T10:42:29;95048.63;;;17.69;51.80
63097;BME280;49185;42.320;23.198;2023-05-09T10:44:55;95050.16;;;16.87;53.75
63097;BME280;49185;42.320;23.198;2023-05-09T10:47:21;95046.69;;;17.45;52.77
63097;BME280;49185;42.320;23.198;2023-05-09T10:49:48;95061.31;;;17.34;53.24
63097;BME280;49185;42.320;23.198;2023-05-09T10:52:14;95056.56;;;17.79;51.95
63097;BME280;49185;42.320;23.198;2023-05-09T10:54:39;95043.84;;;18.33;50.61
63097;BME280;49185;42.320;23.198;2023-05-09T10:57:08;95065.66;;;17.89;51.81
63097;BME280;49185;42.320;23.198;2023-05-09T10:59:37;95056.38;;;17.12;54.29
63097;BME280;49185;42.320;23.198;2023-05-09T11:02:04;95063.50;;;17.32;53.19
63097;BME280;49185;42.320;23.198;2023-05-09T11:04:30;95057.19;;;16.73;55.43
63097;BME280;49185;42.320;23.198;2023-05-09T11:06:55;95055.03;;;16.75;54.60
63097;BME280;49185;42.320;23.198;2023-05-09T11:12:00;95063.28;;;16.39;56.35
63097;BME280;49185;42.320;23.198;2023-05-09T11:24:37;95057.81;;;16.10;56.73
63097;BME280;49185;42.320;23.198;2023-05-09T11:27:13;95057.09;;;15.73;57.61
63097;BME280;49185;42.320;23.198;2023-05-09T11:29:43;95064.91;;;15.75;57.48
63097;BME280;49185;42.320;23.198;2023-05-09T11:32:12;95052.47;;;16.00;57.56
63097;BME280;49185;42.320;23.198;2023-05-09T11:34:42;95049.06;;;15.68;58.11
63097;BME280;49185;42.320;23.198;2023-05-09T11:37:15;95064.91;;;15.54;59.82
63097;BME280;49185;42.320;23.198;2023-05-09T11:39:55;95058.97;;;15.73;59.40
63097;BME280;49185;42.320;23.198;2023-05-09T11:42:22;95056.03;;;15.64;59.04
63097;BME280;49185;42.320;23.198;2023-05-09T11:44:47;95056.38;;;15.32;60.40
63097;BME280;49185;42.320;23.198;2023-05-09T11:47:13;95064.69;;;15.35;60.65
63097;BME280;49185;42.320;23.198;2023-05-09T11:49:42;95064.94;;;15.34;60.20
63097;BME280;49185;42.320;23.198;2023-05-09T11:52:08;95051.28;;;15.25;61.27
63097;BME280;49185;42.320;23.198;2023-05-09T11:54:37;95062.75;;;14.54;63.58
63097;BME280;49185;42.320;23.198;2023-05-09T11:57:02;95068.81;;;14.23;64.66
63097;BME280;49185;42.320;23.198;2023-05-09T11:59:27;95059.75;;;14.30;65.33
63097;BME280;49185;42.320;23.198;2023-05-09T12:01:53;95065.38;;;14.33;65.11
63097;BME280;49185;42.320;23.198;2023-05-09T12:04:18;95056.19;;;14.09;65.93
63097;BME280;49185;42.320;23.198;2023-05-09T12:06:47;95065.22;;;13.87;66.65
63097;BME280;49185;42.320;23.198;2023-05-09T12:09:13;95062.75;;;13.80;67.11
63097;BME280;49185;42.320;23.198;2023-05-09T12:11:46;95056.63;;;13.85;67.42
63097;BME280;49185;42.320;23.198;2023-05-09T12:14:25;95056.84;;;13.73;67.53
63097;BME280;49185;42.320;23.198;2023-05-09T12:16:50;95069.22;;;13.42;70.40
63097;BME280;49185;42.320;23.198;2023-05-09T12:19:17;95070.31;;;13.08;71.66
63097;BME280;49185;42.320;23.198;2023-05-09T12:21:43;95063.19;;;13.19;72.49
63097;BME280;49185;42.320;23.198;2023-05-09T12:24:08;95078.00;;;13.00;73.86
63097;BME280;49185;42.320;23.198;2023-05-09T12:26:34;95066.81;;;12.43;76.67
63097;BME280;49185;42.320;23.198;2023-05-09T12:28:59;95071.63;;;12.73;75.70
63097;BME280;49185;42.320;23.198;2023-05-09T12:31:26;95070.84;;;12.78;74.51
63097;BME280;49185;42.320;23.198;2023-05-09T12:33:51;95074.19;;;12.63;76.59
63097;BME280;49185;42.320;23.198;2023-05-09T12:36:17;95060.69;;;12.75;73.78
63097;BME280;49185;42.320;23.198;2023-05-09T12:38:53;95066.34;;;12.51;75.75
63097;BME280;49185;42.320;23.198;2023-05-09T12:41:18;95060.19;;;12.24;78.39
63097;BME280;49185;42.320;23.198;2023-05-09T12:43:47;95056.31;;;12.64;76.54
63097;BME280;49185;42.320;23.198;2023-05-09T12:46:16;95058.69;;;12.60;76.45
63097;BME280;49185;42.320;23.198;2023-05-09T12:48:42;95062.00;;;12.45;75.81
63097;BME280;49185;42.320;23.198;2023-05-09T12:51:08;95070.63;;;12.25;77.56
63097;BME280;49185;42.320;23.198;2023-05-09T12:53:39;95058.81;;;12.21;78.43
63097;BME280;49185;42.320;23.198;2023-05-09T12:56:17;95046.41;;;12.32;76.45
63097;BME280;49185;42.320;23.198;2023-05-09T12:58:50;95050.63;;;12.28;76.81
63097;BME280;49185;42.320;23.198;2023-05-09T13:01:17;95032.16;;;12.21;76.88
63097;BME280;49185;42.320;23.198;2023-05-09T13:03:42;95048.88;;;12.39;76.16
63097;BME280;49185;42.320;23.198;2023-05-09T13:06:12;95049.84;;;12.27;75.72
63097;BME280;49185;42.320;23.198;2023-05-09T13:08:38;95040.00;;;12.33;75.24
63097;BME280;49185;42.320;23.198;2023-05-09T13:11:04;95045.47;;;12.43;75.84
63097;BME280;49185;42.320;23.198;2023-05-09T13:13:29;95041.91;;;12.65;74.30
63097;BME280;49185;42.320;23.198;2023-05-09T13:15:55;95037.53;;;12.53;74.61
63097;BME280;49185;42.320;23.198;2023-05-09T13:18:20;95030.34;;;12.86;74.17
63097;BME280;49185;42.320;23.198;2023-05-09T13:20:47;95044.16;;;12.78;75.21